createdAt,value
2019-03-30T00:00:19.159Z,13.14
2019-03-30T00:02:45.465Z,13.14
2019-03-30T00:05:11.766Z,13.13
2019-03-30T00:07:38.078Z,13.12
2019-03-30T00:10:04.396Z,13.11
2019-03-30T00:12:30.699Z,13.10
2019-03-30T00:14:57.003Z,13.10
2019-03-30T00:17:23.315Z,13.09
2019-03-30T00:19:49.619Z,13.09
2019-03-30T00:22:15.928Z,13.07
2019-03-30T00:24:42.235Z,13.08
2019-03-30T00:27:08.541Z,13.07
2019-03-30T00:29:34.842Z,13.05
2019-03-30T00:32:01.153Z,13.06
2019-03-30T00:34:27.455Z,13.05
2019-03-30T00:36:53.754Z,13.05
2019-03-30T00:39:20.070Z,13.03
2019-03-30T00:41:46.378Z,13.00
2019-03-30T00:44:12.686Z,13.01
2019-03-30T00:46:38.983Z,12.98
2019-03-30T00:49:05.293Z,12.97
2019-03-30T00:51:31.595Z,12.96
2019-03-30T00:53:57.895Z,12.96
2019-03-30T00:56:24.199Z,12.95
2019-03-30T00:58:50.506Z,12.93
2019-03-30T01:01:16.817Z,12.92
2019-03-30T01:03:43.157Z,12.92
2019-03-30T01:06:09.431Z,12.91
2019-03-30T01:08:35.736Z,12.88
2019-03-30T01:11:02.041Z,12.90
2019-03-30T01:13:28.351Z,12.89
2019-03-30T01:15:54.651Z,12.88
2019-03-30T01:18:20.960Z,12.86
2019-03-30T01:20:47.331Z,12.85
2019-03-30T01:23:13.612Z,12.83
2019-03-30T01:25:39.916Z,12.84
2019-03-30T01:28:06.229Z,12.82
2019-03-30T01:30:32.582Z,12.81
2019-03-30T01:32:58.876Z,12.79
2019-03-30T01:35:25.282Z,12.78
2019-03-30T01:37:51.498Z,12.77
2019-03-30T01:40:17.816Z,12.76
2019-03-30T01:42:44.309Z,12.73
2019-03-30T01:45:10.632Z,12.71
2019-03-30T01:47:36.936Z,12.71
2019-03-30T01:50:16.149Z,12.69
2019-03-30T01:52:29.558Z,12.67
2019-03-30T01:54:55.855Z,12.65
2019-03-30T01:57:22.158Z,12.64
2019-03-30T01:59:48.463Z,12.63
2019-03-30T02:02:15.029Z,12.61
2019-03-30T02:04:41.330Z,12.60
2019-03-30T02:07:07.639Z,12.59
2019-03-30T02:09:33.960Z,12.58
2019-03-30T02:12:00.307Z,12.56
2019-03-30T02:14:26.612Z,12.55
2019-03-30T02:16:52.914Z,12.52
2019-03-30T02:19:19.230Z,12.51
2019-03-30T02:21:45.529Z,12.50
2019-03-30T02:24:11.834Z,12.47
2019-03-30T02:26:38.162Z,12.46
2019-03-30T02:29:04.467Z,12.44
2019-03-30T02:31:30.775Z,12.42
2019-03-30T02:33:57.085Z,12.41
2019-03-30T02:36:23.393Z,12.40
2019-03-30T02:38:49.699Z,12.38
2019-03-30T02:41:16.000Z,12.36
2019-03-30T02:43:42.315Z,12.34
2019-03-30T02:46:08.628Z,12.31
2019-03-30T02:48:34.927Z,12.29
2019-03-30T02:51:01.265Z,12.27
2019-03-30T02:53:27.560Z,12.24
2019-03-30T02:55:53.882Z,12.23
2019-03-30T02:58:20.193Z,12.21
2019-03-30T03:00:46.492Z,12.20
2019-03-30T03:03:12.805Z,12.18
2019-03-30T03:05:39.109Z,12.15
2019-03-30T03:08:05.436Z,12.14
2019-03-30T03:10:31.723Z,12.13
2019-03-30T03:12:58.050Z,12.12
2019-03-30T03:15:24.354Z,12.10
2019-03-30T03:17:50.661Z,12.07
2019-03-30T03:20:16.982Z,12.07
2019-03-30T03:22:43.311Z,12.05
2019-03-30T03:25:09.634Z,12.03
2019-03-30T03:27:35.925Z,12.00
2019-03-30T03:30:02.243Z,11.99
2019-03-30T03:32:28.550Z,11.98
2019-03-30T03:34:54.886Z,11.98
2019-03-30T03:37:21.189Z,11.95
2019-03-30T03:39:47.493Z,11.93
2019-03-30T03:42:13.803Z,11.93
2019-03-30T03:44:40.119Z,11.91
2019-03-30T03:47:06.428Z,11.89
2019-03-30T03:49:32.724Z,11.89
2019-03-30T03:51:59.034Z,11.88
2019-03-30T03:54:25.337Z,11.86
2019-03-30T03:56:51.646Z,11.83
2019-03-30T03:59:17.950Z,11.85
2019-03-30T04:01:44.265Z,11.85
2019-03-30T04:04:10.632Z,11.84
2019-03-30T04:06:36.948Z,11.84
2019-03-30T04:09:03.255Z,11.84
2019-03-30T04:11:29.552Z,11.82
2019-03-30T04:13:55.857Z,11.81
2019-03-30T04:16:22.176Z,11.80
2019-03-30T04:18:48.733Z,11.80
2019-03-30T04:21:14.789Z,11.79
2019-03-30T04:23:41.133Z,11.79
2019-03-30T04:26:07.434Z,11.80
2019-03-30T04:28:33.739Z,11.79
2019-03-30T04:31:00.053Z,11.78
2019-03-30T04:33:26.350Z,11.79
2019-03-30T04:35:52.653Z,11.79
2019-03-30T04:38:18.962Z,11.78
2019-03-30T04:40:45.270Z,11.77
2019-03-30T04:43:11.569Z,11.78
2019-03-30T04:45:37.873Z,11.81
2019-03-30T04:48:04.183Z,11.83
2019-03-30T04:50:30.480Z,11.84
2019-03-30T04:52:56.790Z,11.84
2019-03-30T04:55:23.087Z,11.84
2019-03-30T04:57:49.615Z,11.83
2019-03-30T05:00:15.696Z,11.85
2019-03-30T05:02:41.999Z,11.87
2019-03-30T05:05:08.309Z,11.92
2019-03-30T05:07:34.616Z,11.99
2019-03-30T05:10:00.923Z,12.05
2019-03-30T05:12:27.231Z,12.12
2019-03-30T05:14:53.540Z,12.19
2019-03-30T05:17:19.843Z,12.28
2019-03-30T05:19:46.156Z,12.34
2019-03-30T05:22:16.327Z,12.38
2019-03-30T05:24:38.772Z,12.52
2019-03-30T05:27:05.080Z,12.65
2019-03-30T05:29:31.390Z,12.75
2019-03-30T05:31:57.708Z,12.87
2019-03-30T05:34:24.017Z,12.98
2019-03-30T05:36:50.402Z,13.08
2019-03-30T05:39:16.805Z,13.17
2019-03-30T05:41:43.200Z,13.27
2019-03-30T05:44:09.515Z,13.38
2019-03-30T05:46:35.831Z,13.49
2019-03-30T05:49:02.147Z,13.59
2019-03-30T05:51:28.456Z,13.69
2019-03-30T05:53:54.785Z,13.76
2019-03-30T05:56:21.096Z,13.85
2019-03-30T05:58:47.407Z,13.91
2019-03-30T06:01:13.740Z,13.96
2019-03-30T06:03:40.318Z,14.04
2019-03-30T06:06:06.644Z,14.13
2019-03-30T06:08:32.955Z,14.23
2019-03-30T06:10:59.297Z,14.34
2019-03-30T06:13:25.605Z,14.41
2019-03-30T06:15:51.903Z,14.48
2019-03-30T06:18:18.451Z,14.57
2019-03-30T06:20:44.760Z,14.65
2019-03-30T06:23:11.072Z,14.74
2019-03-30T06:25:37.390Z,14.82
2019-03-30T06:28:04.283Z,14.91
2019-03-30T06:30:30.607Z,15.03
2019-03-30T06:32:56.948Z,15.16
2019-03-30T06:35:23.256Z,15.31
2019-03-30T06:37:49.559Z,15.47
2019-03-30T06:40:15.880Z,15.61
2019-03-30T06:42:42.219Z,15.78
2019-03-30T06:45:08.523Z,15.94
2019-03-30T06:47:34.827Z,16.12
2019-03-30T06:50:01.146Z,16.10
2019-03-30T06:52:27.460Z,16.11
2019-03-30T06:54:53.795Z,16.22
2019-03-30T06:57:20.112Z,16.37
2019-03-30T06:59:46.654Z,16.57
2019-03-30T07:02:12.964Z,16.77
2019-03-30T07:04:39.283Z,17.03
2019-03-30T07:07:05.593Z,17.18
2019-03-30T07:09:31.915Z,17.35
2019-03-30T07:11:58.230Z,17.08
2019-03-30T07:14:24.549Z,16.91
2019-03-30T07:16:50.871Z,16.66
2019-03-30T07:19:17.179Z,15.98
2019-03-30T07:21:43.484Z,15.09
2019-03-30T07:24:09.965Z,14.44
2019-03-30T07:26:36.267Z,13.99
2019-03-30T07:29:02.573Z,13.96
2019-03-30T07:31:28.884Z,14.08
2019-03-30T07:33:55.188Z,14.44
2019-03-30T07:36:21.505Z,14.66
2019-03-30T07:38:47.816Z,14.64
2019-03-30T07:41:14.119Z,14.62
2019-03-30T07:43:40.458Z,14.67
2019-03-30T07:46:06.797Z,14.83
2019-03-30T07:48:33.099Z,15.14
2019-03-30T07:50:59.407Z,15.21
2019-03-30T07:53:27.043Z,15.31
2019-03-30T07:55:52.036Z,15.41
2019-03-30T07:58:18.653Z,15.46
2019-03-30T08:00:44.965Z,15.60
2019-03-30T08:03:11.277Z,15.82
2019-03-30T08:05:37.589Z,16.16
2019-03-30T08:08:03.903Z,16.25
2019-03-30T08:10:30.220Z,16.26
2019-03-30T08:12:56.543Z,16.31
2019-03-30T08:15:22.846Z,16.47
2019-03-30T08:17:49.212Z,16.63
2019-03-30T08:20:15.467Z,16.75
2019-03-30T08:22:41.784Z,16.69
2019-03-30T08:25:08.090Z,16.57
2019-03-30T08:27:34.402Z,16.84
2019-03-30T08:30:00.703Z,16.96
2019-03-30T08:32:27.018Z,16.91
2019-03-30T08:34:53.326Z,16.88
2019-03-30T08:37:19.633Z,16.76
2019-03-30T08:39:45.939Z,16.69
2019-03-30T08:42:12.252Z,16.62
2019-03-30T08:44:38.564Z,16.81
2019-03-30T08:47:05.019Z,16.99
2019-03-30T08:49:31.376Z,17.17
2019-03-30T08:51:57.687Z,17.28
2019-03-30T08:54:24.131Z,17.28
2019-03-30T08:56:50.445Z,16.80
2019-03-30T08:59:16.755Z,16.64
2019-03-30T09:01:43.105Z,16.85
2019-03-30T09:04:09.407Z,16.93
2019-03-30T09:06:35.717Z,16.63
2019-03-30T09:09:02.080Z,16.33
2019-03-30T09:11:28.392Z,16.34
2019-03-30T09:13:54.697Z,16.75
2019-03-30T09:16:21.023Z,17.34
2019-03-30T09:18:47.336Z,17.83
2019-03-30T09:21:13.645Z,17.97
2019-03-30T09:23:39.950Z,18.10
2019-03-30T09:26:06.261Z,18.43
2019-03-30T09:28:32.569Z,18.82
2019-03-30T09:30:58.877Z,18.90
2019-03-30T09:33:25.185Z,18.53
2019-03-30T09:35:51.495Z,18.38
2019-03-30T09:38:17.831Z,18.44
2019-03-30T09:40:44.144Z,18.34
2019-03-30T09:43:10.458Z,18.57
2019-03-30T09:45:36.777Z,18.95
2019-03-30T09:48:03.129Z,19.33
2019-03-30T09:50:29.444Z,19.61
2019-03-30T09:52:55.741Z,19.53
2019-03-30T09:55:22.084Z,19.47
2019-03-30T09:57:48.368Z,19.43
2019-03-30T10:00:14.681Z,19.32
2019-03-30T10:02:41.063Z,19.16
2019-03-30T10:05:08.089Z,19.15
2019-03-30T10:07:34.393Z,19.12
2019-03-30T10:10:01.118Z,19.19
2019-03-30T10:12:27.429Z,19.10
2019-03-30T10:14:55.052Z,19.09
2019-03-30T10:17:21.320Z,19.18
2019-03-30T10:19:58.043Z,19.17
2019-03-30T10:22:13.936Z,19.30
2019-03-30T10:24:40.254Z,19.34
2019-03-30T10:27:06.560Z,19.12
2019-03-30T10:29:32.865Z,18.73
2019-03-30T10:32:00.063Z,18.53
2019-03-30T10:34:25.515Z,18.64
2019-03-30T10:36:51.826Z,18.79
2019-03-30T10:39:18.141Z,19.12
2019-03-30T10:41:44.455Z,19.32
2019-03-30T10:44:10.760Z,19.31
2019-03-30T10:46:37.073Z,19.07
2019-03-30T10:49:04.017Z,18.70
2019-03-30T10:51:30.329Z,18.32
2019-03-30T10:53:56.641Z,18.03
2019-03-30T10:56:22.947Z,17.79
2019-03-30T10:58:49.378Z,17.93
2019-03-30T11:01:15.685Z,17.95
2019-03-30T11:03:41.994Z,17.88
2019-03-30T11:06:08.308Z,17.76
2019-03-30T11:08:34.612Z,17.93
2019-03-30T11:11:00.928Z,18.28
2019-03-30T11:13:27.358Z,18.43
2019-03-30T11:15:53.712Z,18.63
2019-03-30T11:18:20.016Z,18.81
2019-03-30T11:20:46.323Z,18.90
2019-03-30T11:23:12.635Z,19.07
2019-03-30T11:25:38.955Z,19.19
2019-03-30T11:28:05.271Z,19.20
2019-03-30T11:30:31.574Z,19.18
2019-03-30T11:32:57.883Z,19.48
2019-03-30T11:35:24.191Z,19.61
2019-03-30T11:37:50.505Z,19.78
2019-03-30T11:40:16.977Z,19.99
2019-03-30T11:42:43.293Z,20.14
2019-03-30T11:45:09.611Z,20.32
2019-03-30T11:47:35.941Z,20.41
2019-03-30T11:50:02.238Z,20.52
2019-03-30T11:52:28.612Z,20.59
2019-03-30T11:54:54.919Z,20.62
2019-03-30T11:57:21.223Z,20.59
2019-03-30T11:59:47.540Z,20.51
2019-03-30T12:02:27.005Z,20.40
2019-03-30T12:04:40.197Z,20.46
2019-03-30T12:07:06.499Z,20.52
2019-03-30T12:09:32.832Z,20.59
2019-03-30T12:11:59.145Z,20.62
2019-03-30T12:14:25.453Z,20.62
2019-03-30T12:16:51.760Z,20.67
2019-03-30T12:19:18.079Z,20.70
2019-03-30T12:21:44.386Z,20.69
2019-03-30T12:24:10.693Z,20.60
2019-03-30T12:26:37.006Z,20.57
2019-03-30T12:29:03.326Z,20.65
2019-03-30T12:31:29.669Z,20.64
2019-03-30T12:33:55.981Z,20.57
2019-03-30T12:36:22.313Z,20.55
2019-03-30T12:38:48.621Z,20.59
2019-03-30T12:41:15.029Z,20.44
2019-03-30T12:43:41.288Z,20.34
2019-03-30T12:46:07.594Z,20.20
2019-03-30T12:48:33.904Z,20.19
2019-03-30T12:51:00.254Z,20.27
2019-03-30T12:53:26.583Z,20.24
2019-03-30T12:55:52.927Z,20.29
2019-03-30T12:58:19.247Z,20.32
2019-03-30T13:00:45.565Z,20.24
2019-03-30T13:03:11.877Z,20.03
2019-03-30T13:05:38.183Z,19.85
2019-03-30T13:08:04.493Z,19.78
2019-03-30T13:10:30.809Z,19.81
2019-03-30T13:12:57.120Z,19.83
2019-03-30T13:15:23.536Z,19.85
2019-03-30T13:17:49.804Z,19.81
2019-03-30T13:20:16.143Z,19.89
2019-03-30T13:22:42.461Z,19.92
2019-03-30T13:25:08.766Z,19.88
2019-03-30T13:27:35.071Z,19.84
2019-03-30T13:30:01.383Z,19.85
2019-03-30T13:32:27.692Z,19.80
2019-03-30T13:34:54.000Z,19.81
2019-03-30T13:37:20.387Z,19.84
2019-03-30T13:39:46.701Z,19.68
2019-03-30T13:42:13.029Z,19.48
2019-03-30T13:44:39.332Z,19.16
2019-03-30T13:47:05.639Z,19.07
2019-03-30T13:49:31.954Z,19.03
2019-03-30T13:51:58.264Z,19.04
2019-03-30T13:54:24.694Z,19.06
2019-03-30T13:56:51.008Z,18.97
2019-03-30T13:59:17.317Z,18.90
2019-03-30T14:01:43.637Z,18.87
2019-03-30T14:04:09.984Z,18.79
2019-03-30T14:06:36.292Z,18.83
2019-03-30T14:09:02.603Z,18.87
2019-03-30T14:11:28.909Z,18.72
2019-03-30T14:13:55.217Z,18.71
2019-03-30T14:16:21.529Z,18.77
2019-03-30T14:18:47.843Z,18.76
2019-03-30T14:21:14.148Z,18.72
2019-03-30T14:23:43.302Z,18.62
2019-03-30T14:26:06.888Z,18.56
2019-03-30T14:28:33.219Z,18.53
2019-03-30T14:30:59.563Z,18.45
2019-03-30T14:33:25.892Z,18.37
2019-03-30T14:35:52.226Z,18.36
2019-03-30T14:38:18.538Z,18.18
2019-03-30T14:40:44.872Z,17.96
2019-03-30T14:43:11.181Z,17.79
2019-03-30T14:45:37.489Z,17.75
2019-03-30T14:48:03.803Z,17.59
2019-03-30T14:50:30.107Z,17.61
2019-03-30T14:52:56.418Z,17.53
2019-03-30T14:55:22.737Z,17.48
2019-03-30T14:57:49.073Z,17.46
2019-03-30T15:00:15.438Z,17.39
2019-03-30T15:02:41.701Z,17.26
2019-03-30T15:05:08.028Z,17.27
2019-03-30T15:07:34.335Z,17.30
2019-03-30T15:10:00.645Z,17.43
2019-03-30T15:12:26.956Z,17.49
2019-03-30T15:14:53.285Z,17.48
2019-03-30T15:17:19.916Z,17.45
2019-03-30T15:19:46.221Z,17.26
2019-03-30T15:22:12.531Z,17.15
2019-03-30T15:24:38.868Z,17.21
2019-03-30T15:27:05.180Z,17.29
2019-03-30T15:29:31.490Z,17.18
2019-03-30T15:31:57.903Z,17.04
2019-03-30T15:34:24.216Z,16.89
2019-03-30T15:36:50.546Z,16.77
2019-03-30T15:39:16.870Z,16.70
2019-03-30T15:41:43.180Z,16.68
2019-03-30T15:44:09.497Z,16.63
2019-03-30T15:46:35.813Z,16.58
2019-03-30T15:49:02.158Z,16.41
2019-03-30T15:51:28.470Z,16.45
2019-03-30T15:53:54.779Z,16.46
2019-03-30T15:56:21.125Z,16.40
2019-03-30T15:58:47.431Z,16.38
2019-03-30T16:01:13.746Z,16.33
2019-03-30T16:03:40.067Z,16.28
2019-03-30T16:06:06.382Z,16.24
2019-03-30T16:08:32.725Z,16.17
2019-03-30T16:10:59.029Z,16.15
2019-03-30T16:13:25.343Z,16.15
2019-03-30T16:15:51.648Z,16.09
2019-03-30T16:18:17.949Z,16.05
2019-03-30T16:20:44.295Z,16.04
2019-03-30T16:23:10.620Z,16.02
2019-03-30T16:25:36.924Z,16.00
2019-03-30T16:28:03.254Z,16.02
2019-03-30T16:30:29.580Z,15.89
2019-03-30T16:32:55.886Z,15.83
2019-03-30T16:35:22.227Z,15.77
2019-03-30T16:37:48.623Z,15.77
2019-03-30T16:40:14.928Z,15.75
2019-03-30T16:42:41.231Z,15.75
2019-03-30T16:45:07.539Z,15.72
2019-03-30T16:47:33.865Z,15.67
2019-03-30T16:50:00.384Z,15.64
2019-03-30T16:52:26.486Z,15.58
2019-03-30T16:54:52.801Z,15.50
2019-03-30T16:57:19.113Z,15.44
2019-03-30T16:59:45.430Z,15.46
2019-03-30T17:02:11.724Z,15.45
2019-03-30T17:04:38.036Z,15.38
2019-03-30T17:07:04.348Z,15.38
2019-03-30T17:09:30.662Z,15.36
2019-03-30T17:11:56.968Z,15.32
2019-03-30T17:14:23.298Z,15.28
2019-03-30T17:16:49.732Z,15.25
2019-03-30T17:19:16.065Z,15.18
2019-03-30T17:21:42.393Z,15.12
2019-03-30T17:24:08.718Z,15.15
2019-03-30T17:26:35.043Z,15.13
2019-03-30T17:29:01.369Z,15.08
2019-03-30T17:31:27.707Z,15.03
2019-03-30T17:33:54.027Z,15.01
2019-03-30T17:36:20.363Z,14.92
2019-03-30T17:38:46.696Z,14.96
2019-03-30T17:41:13.050Z,14.89
2019-03-30T17:43:39.385Z,14.84
2019-03-30T17:46:05.717Z,14.81
2019-03-30T17:48:32.047Z,14.75
2019-03-30T17:50:58.654Z,14.78
2019-03-30T17:53:24.699Z,14.78
2019-03-30T17:55:51.146Z,14.74
2019-03-30T17:58:17.471Z,14.73
2019-03-30T18:00:43.785Z,14.74
2019-03-30T18:03:10.173Z,14.73
2019-03-30T18:05:36.508Z,14.77
2019-03-30T18:08:02.837Z,14.81
2019-03-30T18:10:29.153Z,14.81
2019-03-30T18:12:55.474Z,14.80
2019-03-30T18:15:21.890Z,14.78
2019-03-30T18:17:48.222Z,14.69
2019-03-30T18:20:14.540Z,14.60
2019-03-30T18:22:40.864Z,14.55
2019-03-30T18:25:07.237Z,14.48
2019-03-30T18:27:33.568Z,14.47
2019-03-30T18:29:59.894Z,14.44
2019-03-30T18:32:26.239Z,14.43
2019-03-30T18:34:52.565Z,14.39
2019-03-30T18:37:18.893Z,14.50
2019-03-30T18:39:45.218Z,14.60
2019-03-30T18:42:11.544Z,14.65
2019-03-30T18:44:37.867Z,14.62
2019-03-30T18:47:04.234Z,14.52
2019-03-30T18:49:30.564Z,14.52
2019-03-30T18:51:56.895Z,14.47
2019-03-30T18:54:25.242Z,14.51
2019-03-30T18:56:49.897Z,14.57
2019-03-30T18:59:16.258Z,14.56
2019-03-30T19:01:42.584Z,14.58
2019-03-30T19:04:08.982Z,14.57
2019-03-30T19:06:35.306Z,14.57
2019-03-30T19:09:01.634Z,14.54
2019-03-30T19:11:27.957Z,14.52
2019-03-30T19:13:54.292Z,14.45
2019-03-30T19:16:20.616Z,14.38
2019-03-30T19:18:46.933Z,14.33
2019-03-30T19:21:13.258Z,14.33
2019-03-30T19:23:39.612Z,14.20
2019-03-30T19:26:05.962Z,14.21
2019-03-30T19:28:32.287Z,14.19
2019-03-30T19:30:58.621Z,14.19
2019-03-30T19:33:24.950Z,14.16
2019-03-30T19:35:51.279Z,14.11
2019-03-30T19:38:17.614Z,14.11
2019-03-30T19:40:43.937Z,14.09
2019-03-30T19:43:10.267Z,14.06
2019-03-30T19:45:36.596Z,14.02
2019-03-30T19:48:02.921Z,13.98
2019-03-30T19:50:29.246Z,13.93
2019-03-30T19:52:55.768Z,13.94
2019-03-30T19:55:22.089Z,14.00
2019-03-30T19:57:48.440Z,13.98
2019-03-30T20:00:14.765Z,13.96
2019-03-30T20:02:41.083Z,13.92
2019-03-30T20:05:07.410Z,13.85
2019-03-30T20:07:33.721Z,13.81
2019-03-30T20:10:00.056Z,13.74
2019-03-30T20:12:26.439Z,13.69
2019-03-30T20:14:52.785Z,13.67
2019-03-30T20:17:19.122Z,13.63
2019-03-30T20:19:45.436Z,13.68
2019-03-30T20:22:11.773Z,13.68
2019-03-30T20:24:38.111Z,13.67
2019-03-30T20:27:04.545Z,13.64
2019-03-30T20:29:30.878Z,13.55
2019-03-30T20:31:57.197Z,13.51
2019-03-30T20:34:23.536Z,13.48
2019-03-30T20:36:49.866Z,13.40
2019-03-30T20:39:16.191Z,13.38
2019-03-30T20:41:42.534Z,13.42
2019-03-30T20:44:08.854Z,13.41
2019-03-30T20:46:35.181Z,13.43
2019-03-30T20:49:01.508Z,13.42
2019-03-30T20:51:27.824Z,13.39
2019-03-30T20:53:54.145Z,13.39
2019-03-30T20:56:20.467Z,13.34
2019-03-30T20:58:46.903Z,13.30
2019-03-30T21:01:13.146Z,13.33
2019-03-30T21:03:39.471Z,13.29
2019-03-30T21:06:05.793Z,13.34
2019-03-30T21:08:32.142Z,13.35
2019-03-30T21:10:58.475Z,13.36
2019-03-30T21:13:24.814Z,13.34
2019-03-30T21:15:51.125Z,13.28
2019-03-30T21:18:17.441Z,13.24
2019-03-30T21:20:43.778Z,13.09
2019-03-30T21:23:10.138Z,13.21
2019-03-30T21:25:36.459Z,13.18
2019-03-30T21:28:02.777Z,13.12
2019-03-30T21:30:29.127Z,13.11
2019-03-30T21:32:55.463Z,13.07
2019-03-30T21:35:21.783Z,13.03
2019-03-30T21:37:48.092Z,12.96
2019-03-30T21:40:14.439Z,12.85
2019-03-30T21:42:40.767Z,12.85
2019-03-30T21:45:07.141Z,12.83
2019-03-30T21:47:33.471Z,12.85
2019-03-30T21:49:59.790Z,12.84
2019-03-30T21:52:26.143Z,12.88
2019-03-30T21:54:52.640Z,12.86
2019-03-30T21:57:18.926Z,12.87
2019-03-30T21:59:45.245Z,12.82
2019-03-30T22:02:11.570Z,12.73
2019-03-30T22:04:37.905Z,12.64
2019-03-30T22:07:04.235Z,12.62
2019-03-30T22:09:30.558Z,12.62
2019-03-30T22:11:56.882Z,12.50
2019-03-30T22:14:23.233Z,12.45
2019-03-30T22:16:49.561Z,12.44
2019-03-30T22:19:15.890Z,12.45
2019-03-30T22:21:42.209Z,12.31
2019-03-30T22:24:08.557Z,12.25
2019-03-30T22:26:34.875Z,12.26
2019-03-30T22:29:01.204Z,12.24
2019-03-30T22:31:27.548Z,12.13
2019-03-30T22:33:53.864Z,12.08
2019-03-30T22:36:20.201Z,12.14
2019-03-30T22:38:46.528Z,12.22
2019-03-30T22:41:12.854Z,12.20
2019-03-30T22:43:39.490Z,12.13
2019-03-30T22:46:07.502Z,11.99
2019-03-30T22:48:32.157Z,11.95
2019-03-30T22:50:58.479Z,11.97
2019-03-30T22:53:24.805Z,11.94
2019-03-30T22:55:51.252Z,11.89
2019-03-30T22:58:17.677Z,11.80
2019-03-30T23:00:44.123Z,11.80
2019-03-30T23:03:10.458Z,11.77
2019-03-30T23:05:36.785Z,11.77
2019-03-30T23:08:03.094Z,11.69
2019-03-30T23:10:29.410Z,11.74
2019-03-30T23:12:55.711Z,11.69
2019-03-30T23:15:22.022Z,11.65
2019-03-30T23:17:48.328Z,11.67
2019-03-30T23:20:14.633Z,11.71
2019-03-30T23:22:40.945Z,11.72
2019-03-30T23:25:07.257Z,11.76
2019-03-30T23:27:33.555Z,11.69
2019-03-30T23:29:59.894Z,11.69
2019-03-30T23:32:26.221Z,11.70
2019-03-30T23:34:52.550Z,11.62
2019-03-30T23:37:18.853Z,11.49
2019-03-30T23:39:45.159Z,11.40
2019-03-30T23:42:11.462Z,11.40
2019-03-30T23:44:37.809Z,11.46
2019-03-30T23:47:04.119Z,11.41
2019-03-30T23:49:30.439Z,11.40
2019-03-30T23:51:56.752Z,11.36
2019-03-30T23:54:23.077Z,11.40
2019-03-30T23:56:49.398Z,11.41
2019-03-30T23:59:15.700Z,11.41
